Terminal Aerodrome Forecast
Issued by NWS Cleveland, OH

Home | Current Version | Previous Version | Graphics & Text | Print | Product List | Glossary Off
Versions: 1 2 3 4 5 6 7 8 9 10 11 12 13 14 15 16 17 18 19 20 21 22 23 24 25 26

000
FTUS41 KCLE 302112 AAB
TAFCLE
TAF AMD
KCLE 302112Z 3021/3124 36005KT P6SM FEW060 BKN250
     FM310400 24005KT P6SM VCSH BKN050 OVC100
     FM311000 21003KT P6SM OVC050
      TEMPO 3112/3115 4SM -SHRA OVC035
     FM311500 28004KT P6SM OVC035
      TEMPO 3115/3118 5SM -SHRA
     FM311900 33008KT P6SM BKN040=

USA.gov is the U.S. government's official web portal to all federal, state and local government web resources and services.